Terminal Aerodrome Forecast
Issued by NWS Sterling, VA

Current Version | Previous Version | Text Only | Print | Product List | Glossary On
Versions: 1 2 3 4 5 6 7 8 9 10 11 12 13 14 15 16 17 18 19
000
FTUS41 KLWX 232300 RRA
TAFMRB
TAF
KMRB 232341Z 2400/2424 VRB03KT 3SM -SNRAPL OVC025
     FM240300 VRB03KT 3SM -RASNPL OVC008
     FM240600 00000KT 2SM -FZRASNPL OVC008
     FM240900 36004KT 3/4SM -SN OVC008
     FM241400 32006KT P6SM OVC008
     FM241700 30007KT P6SM OVC015
     FM242000 29010KT P6SM BKN120=

USA.gov is the U.S. government's official web portal to all federal, state and local government web resources and services.